createdAt,value
2019-04-11T00:01:17.191Z,96316.95
2019-04-11T00:03:43.873Z,96315.70
2019-04-11T00:06:10.073Z,96313.86
2019-04-11T00:08:37.162Z,96313.19
2019-04-11T00:11:03.778Z,96311.27
2019-04-11T00:13:33.037Z,96328.09
2019-04-11T00:15:57.687Z,96319.61
2019-04-11T00:18:23.514Z,96324.92
2019-04-11T00:20:50.596Z,96322.44
2019-04-11T00:23:16.494Z,96323.01
2019-04-11T00:25:42.321Z,96315.81
2019-04-11T00:28:08.285Z,96315.13
2019-04-11T00:30:34.494Z,96322.33
2019-04-11T00:33:00.286Z,96322.33
2019-04-11T00:35:26.365Z,96316.43
2019-04-11T00:37:52.174Z,96319.44
2019-04-11T00:40:18.843Z,96317.40
2019-04-11T00:42:47.056Z,96323.62
2019-04-11T00:45:13.668Z,96324.92
2019-04-11T00:47:39.835Z,96328.60
2019-04-11T00:50:05.769Z,96326.69
2019-04-11T00:52:31.806Z,96334.08
2019-04-11T00:54:57.571Z,96332.95
2019-04-11T00:57:23.360Z,96328.53
2019-04-11T00:59:49.163Z,96335.02
2019-04-11T01:02:15.621Z,96332.20
2019-04-11T01:04:41.485Z,96342.00
2019-04-11T01:07:07.273Z,96334.63
2019-04-11T01:09:34.643Z,96338.80
2019-04-11T01:12:00.530Z,96336.53
2019-04-11T01:14:26.420Z,96338.88
2019-04-11T01:16:53.697Z,96340.09
2019-04-11T01:19:20.964Z,96337.45
2019-04-11T01:21:46.866Z,96340.41
2019-04-11T01:24:15.657Z,96351.83
2019-04-11T01:26:41.620Z,96336.69
2019-04-11T01:29:11.340Z,96334.41
2019-04-11T01:31:39.901Z,96331.58
2019-04-11T01:34:06.493Z,96338.83
2019-04-11T01:36:33.228Z,96340.94
2019-04-11T01:39:17.669Z,96348.10
2019-04-11T01:41:44.732Z,96356.36
2019-04-11T01:44:10.977Z,96350.98
2019-04-11T01:46:38.046Z,96362.31
2019-04-11T01:49:06.133Z,96357.05
2019-04-11T01:51:32.027Z,96349.47
2019-04-11T01:53:57.795Z,96351.19
2019-04-11T01:56:23.583Z,96351.85
2019-04-11T01:58:49.669Z,96351.41
2019-04-11T02:01:20.947Z,96356.48
2019-04-11T02:04:06.115Z,96352.25
2019-04-11T02:06:32.058Z,96358.08
2019-04-11T02:11:23.875Z,96365.20
2019-04-11T02:13:50.307Z,96375.70
2019-04-11T02:16:16.787Z,96377.80
2019-04-11T02:18:43.649Z,96374.47
2019-04-11T02:21:09.532Z,96374.09
2019-04-11T02:26:41.072Z,96369.04
2019-04-11T02:29:08.991Z,96370.33
2019-04-11T02:31:36.521Z,96393.24
2019-04-11T02:34:04.415Z,96376.74
2019-04-11T02:36:32.157Z,96392.48
2019-04-11T02:39:02.160Z,96377.34
2019-04-11T02:41:27.518Z,96381.04
2019-04-11T02:43:55.056Z,96384.57
2019-04-11T02:46:31.936Z,96381.67
2019-04-11T02:48:49.783Z,96377.69
2019-04-11T02:51:15.875Z,96382.15
2019-04-11T02:53:41.926Z,96396.28
2019-04-11T02:56:09.310Z,96388.98
2019-04-11T02:58:39.142Z,96386.98
2019-04-11T03:01:07.922Z,96400.27
2019-04-11T03:03:34.197Z,96386.13
2019-04-11T03:06:02.173Z,96387.37
2019-04-11T03:08:29.825Z,96390.36
2019-04-11T03:10:57.504Z,96385.41
2019-04-11T03:13:25.253Z,96387.66
2019-04-11T03:16:07.184Z,96389.91
2019-04-11T03:18:40.730Z,96390.47
2019-04-11T03:20:54.891Z,96392.38
2019-04-11T03:23:18.691Z,96395.03
2019-04-11T03:25:44.875Z,96398.52
2019-04-11T03:28:16.756Z,96403.52
2019-04-11T03:31:01.799Z,96393.69
2019-04-11T03:36:27.541Z,96399.47
2019-04-11T03:38:29.309Z,96397.17
2019-04-11T03:40:54.013Z,96397.60
2019-04-11T03:43:13.378Z,96398.06
2019-04-11T03:45:49.638Z,96403.04
2019-04-11T03:48:10.135Z,96405.03
2019-04-11T03:50:26.038Z,96402.90
2019-04-11T03:52:51.938Z,96415.02
2019-04-11T03:55:19.358Z,96415.21
2019-04-11T03:57:47.055Z,96415.95
2019-04-11T04:00:15.435Z,96414.71
2019-04-11T04:02:41.430Z,96418.80
2019-04-11T04:05:08.788Z,96420.52
2019-04-11T04:07:35.980Z,96420.80
2019-04-11T04:10:05.194Z,96425.48
2019-04-11T04:12:33.403Z,96433.21
2019-04-11T04:15:03.945Z,96431.20
2019-04-11T04:17:32.843Z,96437.73
2019-04-11T04:20:04.941Z,96438.07
2019-04-11T04:22:49.958Z,96439.16
2019-04-11T04:25:16.645Z,96444.64
2019-04-11T04:27:43.033Z,96441.78
2019-04-11T04:30:13.694Z,96311.78
2019-04-11T04:32:40.529Z,96444.67
2019-04-11T04:35:10.429Z,96449.77
2019-04-11T04:37:34.849Z,96446.52
2019-04-11T04:40:21.637Z,96453.52
2019-04-11T04:42:35.869Z,96453.42
2019-04-11T04:44:58.288Z,96455.23
2019-04-11T04:47:32.640Z,96457.38
2019-04-11T04:49:52.378Z,96454.65
2019-04-11T04:52:20.806Z,96464.17
2019-04-11T04:54:48.341Z,96459.41
2019-04-11T04:57:15.525Z,96454.94
2019-04-11T04:59:42.544Z,96481.06
2019-04-11T05:02:10.530Z,96463.95
2019-04-11T05:04:38.148Z,96470.59
2019-04-11T05:07:05.291Z,96475.19
2019-04-11T05:09:32.048Z,96471.73
2019-04-11T05:11:57.948Z,96473.86
2019-04-11T05:14:25.261Z,96469.69
2019-04-11T05:16:52.531Z,96474.17
2019-04-11T05:19:22.560Z,96475.97
2019-04-11T05:21:49.903Z,96477.55
2019-04-11T05:24:18.686Z,96473.11
2019-04-11T05:26:44.585Z,96489.81
2019-04-11T05:29:11.269Z,96478.31
2019-04-11T05:31:38.726Z,96482.84
2019-04-11T05:34:07.819Z,96484.11
2019-04-11T05:36:34.017Z,96487.56
2019-04-11T05:39:04.914Z,96488.31
2019-04-11T05:41:33.704Z,96506.72
2019-04-11T05:44:03.453Z,96508.58
2019-04-11T05:46:35.360Z,96505.30
2019-04-11T05:49:00.527Z,96492.56
2019-04-11T05:51:26.437Z,96510.79
2019-04-11T05:53:54.491Z,96498.04
2019-04-11T05:56:21.933Z,96497.63
2019-04-11T05:58:47.993Z,96495.62
2019-04-11T06:01:18.253Z,96495.23
2019-04-11T06:03:45.489Z,96500.25
2019-04-11T06:06:16.395Z,96500.23
2019-04-11T06:08:44.045Z,96502.30
2019-04-11T06:11:17.270Z,96509.88
2019-04-11T06:16:12.549Z,96506.48
2019-04-11T06:21:46.949Z,96513.23
2019-04-11T06:24:27.966Z,96508.89
2019-04-11T06:27:11.382Z,96512.13
2019-04-11T06:29:55.902Z,96511.59
2019-04-11T06:32:29.908Z,96508.38
2019-04-11T06:34:57.846Z,96517.87
2019-04-11T06:37:42.028Z,96520.97
2019-04-11T06:40:26.425Z,96517.84
2019-04-11T06:42:55.952Z,96521.61
2019-04-11T06:45:41.838Z,96519.38
2019-04-11T06:48:15.697Z,96525.37
2019-04-11T06:50:47.195Z,96522.72
2019-04-11T06:53:14.839Z,96521.70
2019-04-11T06:55:45.318Z,96525.63
2019-04-11T06:58:16.181Z,96521.66
2019-04-11T07:00:43.903Z,96525.25
2019-04-11T07:03:19.626Z,96522.15
2019-04-11T07:05:40.627Z,96522.52
2019-04-11T07:08:07.697Z,96527.01
2019-04-11T07:10:44.737Z,96517.43
2019-04-11T07:13:30.900Z,96522.27
2019-04-11T07:16:18.462Z,96518.57
2019-04-11T07:18:52.764Z,96512.66
2019-04-11T07:21:19.086Z,96515.41
2019-04-11T07:24:03.468Z,96520.05
2019-04-11T07:26:37.584Z,96522.60
2019-04-11T07:31:58.886Z,96517.30
2019-04-11T07:34:35.174Z,96519.69
2019-04-11T07:37:06.698Z,96514.30
2019-04-11T07:39:51.842Z,96525.13
2019-04-11T07:42:25.968Z,96525.58
2019-04-11T07:44:53.854Z,96526.52
2019-04-11T07:47:26.428Z,96525.44
2019-04-11T07:49:55.221Z,96539.91
2019-04-11T07:52:25.001Z,96536.97
2019-04-11T07:54:51.405Z,96544.64
2019-04-11T07:57:33.005Z,96537.10
2019-04-11T08:00:17.081Z,96540.72
2019-04-11T08:03:02.051Z,96536.28
2019-04-11T08:05:46.803Z,96535.03
2019-04-11T08:08:34.586Z,96537.36
2019-04-11T08:11:02.720Z,96491.03
2019-04-11T08:13:36.926Z,96537.10
2019-04-11T08:16:20.388Z,96536.90
2019-04-11T08:18:54.230Z,96541.49
2019-04-11T08:21:24.419Z,96543.95
2019-04-11T08:23:52.144Z,96544.89
2019-04-11T08:26:35.847Z,96544.28
2019-04-11T08:29:08.971Z,96502.61
2019-04-11T08:31:34.637Z,96550.77
2019-04-11T08:34:00.690Z,96549.05
2019-04-11T08:36:47.217Z,96550.65
2019-04-11T08:39:15.842Z,96549.05
2019-04-11T08:41:47.552Z,96552.30
2019-04-11T08:44:13.543Z,96553.03
2019-04-11T08:46:42.689Z,96556.87
2019-04-11T08:49:28.644Z,96563.27
2019-04-11T08:51:54.393Z,96559.13
2019-04-11T08:54:37.631Z,96557.33
2019-04-11T08:57:03.898Z,96563.92
2019-04-11T08:59:31.886Z,96566.47
2019-04-11T09:01:58.225Z,96562.03
2019-04-11T09:04:43.294Z,96564.74
2019-04-11T09:07:10.688Z,96558.64
2019-04-11T09:09:56.153Z,96558.98
2019-04-11T09:12:22.624Z,96556.23
2019-04-11T09:14:50.686Z,96557.93
2019-04-11T09:17:19.564Z,96557.64
2019-04-11T09:19:55.019Z,96559.15
2019-04-11T09:22:26.891Z,96550.58
2019-04-11T09:25:10.905Z,96548.81
2019-04-11T09:27:45.019Z,96555.90
2019-04-11T09:30:32.673Z,96563.21
2019-04-11T09:33:17.456Z,96556.66
2019-04-11T09:35:55.474Z,96558.70
2019-04-11T09:38:26.520Z,96560.33
2019-04-11T09:41:00.545Z,96559.52
2019-04-11T09:43:31.776Z,96565.24
2019-04-11T09:46:18.570Z,96558.94
2019-04-11T09:48:46.475Z,96560.60
2019-04-11T09:51:33.758Z,96559.27
2019-04-11T09:54:01.585Z,96560.81
2019-04-11T09:56:45.172Z,96558.32
2019-04-11T09:59:25.129Z,96557.61
2019-04-11T10:02:10.112Z,96553.22
2019-04-11T10:04:37.241Z,96555.17
2019-04-11T10:07:21.757Z,96557.18
2019-04-11T10:10:04.594Z,96557.50
2019-04-11T10:12:48.908Z,96561.30
2019-04-11T10:15:15.463Z,96557.57
2019-04-11T10:18:01.009Z,96561.77
2019-04-11T10:20:26.947Z,96565.48
2019-04-11T10:23:04.969Z,96560.55
2019-04-11T10:25:32.973Z,96565.92
2019-04-11T10:28:03.282Z,96564.86
2019-04-11T10:30:33.593Z,96559.78
2019-04-11T10:33:02.854Z,96567.62
2019-04-11T10:35:46.214Z,96569.94
2019-04-11T10:38:14.068Z,96565.75
2019-04-11T10:40:44.228Z,96564.57
2019-04-11T10:43:10.042Z,96571.63
2019-04-11T10:45:46.954Z,96569.02
2019-04-11T10:48:13.890Z,96574.05
2019-04-11T10:50:58.473Z,96571.91
2019-04-11T10:53:24.940Z,96571.48
2019-04-11T10:56:10.649Z,96571.67
2019-04-11T10:58:38.871Z,96569.55
2019-04-11T11:01:07.524Z,96572.05
2019-04-11T11:03:53.462Z,96566.48
2019-04-11T11:06:21.869Z,96565.59
2019-04-11T11:09:05.937Z,96564.77
2019-04-11T11:11:34.571Z,96569.83
2019-04-11T11:14:05.184Z,96575.81
2019-04-11T11:16:34.183Z,96568.25
2019-04-11T11:19:33.572Z,96568.25
2019-04-11T11:21:45.045Z,96576.38
2019-04-11T11:24:31.690Z,96581.63
2019-04-11T11:26:58.773Z,96582.09
2019-04-11T11:29:30.092Z,96574.06
2019-04-11T11:31:57.866Z,96567.12
2019-04-11T11:34:25.595Z,96577.50
2019-04-11T11:36:54.819Z,96568.72
2019-04-11T11:39:33.214Z,96576.32
2019-04-11T11:42:17.936Z,96576.32
2019-04-11T11:44:53.003Z,96569.23
2019-04-11T11:47:39.749Z,96566.73
2019-04-11T11:50:11.461Z,96566.73
2019-04-11T11:52:54.125Z,96578.31
2019-04-11T11:55:25.177Z,96572.17
2019-04-11T11:57:53.187Z,96572.17
2019-04-11T12:00:21.309Z,96573.48
2019-04-11T12:02:58.989Z,96578.23
2019-04-11T12:05:29.956Z,96578.23
2019-04-11T12:07:58.104Z,96567.38
2019-04-11T12:10:26.301Z,96578.78
2019-04-11T12:12:54.269Z,96578.78
2019-04-11T12:15:22.797Z,96576.86
2019-04-11T12:18:09.881Z,96571.50
2019-04-11T12:20:45.316Z,96575.56
2019-04-11T12:23:29.525Z,96576.27
2019-04-11T12:25:55.747Z,96567.03
2019-04-11T12:28:23.559Z,96570.40
2019-04-11T12:30:53.063Z,96565.52
2019-04-11T12:33:37.903Z,96566.78
2019-04-11T12:36:09.811Z,96566.86
2019-04-11T12:38:54.785Z,96568.22
2019-04-11T12:41:25.262Z,96568.83
2019-04-11T12:44:08.177Z,96571.77
2019-04-11T12:46:48.062Z,96563.09
2019-04-11T12:49:27.972Z,96567.00
2019-04-11T12:52:12.922Z,96570.84
2019-04-11T12:54:40.931Z,96560.72
2019-04-11T12:57:25.779Z,96558.52
2019-04-11T12:59:53.476Z,96560.95
2019-04-11T13:02:33.275Z,96560.95
2019-04-11T13:05:00.086Z,96555.90
2019-04-11T13:07:33.705Z,96558.25
2019-04-11T13:10:01.574Z,96568.03
2019-04-11T13:12:34.876Z,96566.48
2019-04-11T13:15:08.235Z,96561.66
2019-04-11T13:17:52.893Z,96561.63
2019-04-11T13:20:37.606Z,96559.02
2019-04-11T13:23:21.962Z,96563.21
2019-04-11T13:26:07.730Z,96557.08
2019-04-11T13:28:33.640Z,96560.38
2019-04-11T13:31:01.400Z,96551.09
2019-04-11T13:33:27.206Z,96548.73
2019-04-11T13:36:11.812Z,96551.41
2019-04-11T13:38:38.077Z,96550.52
2019-04-11T13:41:22.552Z,96480.39
2019-04-11T13:43:50.247Z,96543.11
2019-04-11T13:46:39.982Z,96540.63
2019-04-11T13:49:19.613Z,96545.48
2019-04-11T13:52:03.929Z,96544.94
2019-04-11T13:54:34.660Z,96558.45
2019-04-11T13:57:05.335Z,96555.20
2019-04-11T13:59:35.915Z,96556.98
2019-04-11T14:02:14.724Z,96557.84
2019-04-11T14:04:48.624Z,96552.27
2019-04-11T14:07:18.644Z,96558.73
2019-04-11T14:10:04.425Z,96555.42
2019-04-11T14:12:33.325Z,96549.58
2019-04-11T14:15:01.274Z,96555.27
2019-04-11T14:17:45.550Z,96549.61
2019-04-11T14:20:29.115Z,96549.27
2019-04-11T14:23:02.503Z,96543.28
2019-04-11T14:25:36.630Z,96547.69
2019-04-11T14:28:04.777Z,96536.82
2019-04-11T14:30:34.997Z,96545.31
2019-04-11T14:33:01.091Z,96549.55
2019-04-11T14:35:37.985Z,96545.52
2019-04-11T14:38:11.496Z,96547.03
2019-04-11T14:40:45.406Z,96554.73
2019-04-11T14:43:19.406Z,96552.63
2019-04-11T14:45:53.097Z,96548.66
2019-04-11T14:48:20.921Z,96551.45
2019-04-11T14:50:57.847Z,96563.62
2019-04-11T14:53:41.078Z,96551.47
2019-04-11T14:56:11.491Z,96557.70
2019-04-11T14:58:59.598Z,96558.30
2019-04-11T15:01:28.188Z,96551.03
2019-04-11T15:04:14.052Z,96554.21
2019-04-11T15:06:45.209Z,96546.72
2019-04-11T15:09:16.898Z,96552.05
2019-04-11T15:11:47.123Z,96556.45
2019-04-11T15:14:15.788Z,96552.30
2019-04-11T15:16:50.764Z,96557.30
2019-04-11T15:19:16.598Z,96558.93
2019-04-11T15:22:01.349Z,96554.86
2019-04-11T15:24:27.161Z,96554.52
2019-04-11T15:27:11.611Z,96553.03
2019-04-11T15:29:40.793Z,96554.36
2019-04-11T15:32:23.414Z,96563.31
2019-04-11T15:34:49.824Z,96554.70
2019-04-11T15:37:35.432Z,96557.37
2019-04-11T15:40:12.142Z,96556.29
2019-04-11T15:42:42.615Z,96554.03
2019-04-11T15:45:27.143Z,96557.69
2019-04-11T15:48:06.890Z,96559.58
2019-04-11T15:50:50.906Z,96556.57
2019-04-11T15:53:28.140Z,96561.20
2019-04-11T15:56:13.229Z,96568.25
2019-04-11T15:58:57.569Z,96572.33
2019-04-11T16:01:44.957Z,96575.08
2019-04-11T16:04:27.898Z,96573.66
2019-04-11T16:07:08.647Z,96568.22
2019-04-11T16:09:34.848Z,96566.09
2019-04-11T16:12:09.188Z,96560.45
2019-04-11T16:14:34.988Z,96562.07
2019-04-11T16:17:13.410Z,96568.30
2019-04-11T16:19:40.911Z,96563.80
2019-04-11T16:22:25.604Z,96568.17
2019-04-11T16:24:53.293Z,96563.92
2019-04-11T16:27:27.084Z,96563.36
2019-04-11T16:30:04.146Z,96566.95
2019-04-11T16:32:32.132Z,96569.53
2019-04-11T16:35:02.662Z,96585.07
2019-04-11T16:37:29.055Z,96567.96
2019-04-11T16:40:13.734Z,96533.86
2019-04-11T16:42:41.520Z,96576.45
2019-04-11T16:45:25.984Z,96575.08
2019-04-11T16:47:56.971Z,96582.57
2019-04-11T16:50:26.117Z,96584.61
2019-04-11T16:52:52.193Z,96582.53
2019-04-11T16:55:21.033Z,96583.75
2019-04-11T16:57:47.133Z,96588.63
2019-04-11T17:00:20.426Z,96579.50
2019-04-11T17:02:44.288Z,96585.98
2019-04-11T17:05:10.413Z,96585.98
2019-04-11T17:07:45.141Z,96591.14
2019-04-11T17:10:12.879Z,96587.25
2019-04-11T17:12:38.670Z,96594.87
2019-04-11T17:15:05.064Z,96601.92
2019-04-11T17:17:31.582Z,96589.99
2019-04-11T17:19:57.749Z,96594.56
2019-04-11T17:22:23.574Z,96594.10
2019-04-11T17:24:49.652Z,96598.95
2019-04-11T17:27:15.479Z,96602.10
2019-04-11T17:29:44.067Z,96606.69
2019-04-11T17:32:09.880Z,96621.14
2019-04-11T17:34:35.764Z,96606.33
2019-04-11T17:37:02.878Z,96610.48
2019-04-11T17:39:29.223Z,96612.77
2019-04-11T17:41:55.018Z,96612.13
2019-04-11T17:44:21.082Z,96612.52
2019-04-11T17:46:50.160Z,96615.14
2019-04-11T17:49:16.218Z,96634.44
2019-04-11T17:51:55.334Z,96621.39
2019-04-11T17:54:12.872Z,96638.09
2019-04-11T17:56:42.039Z,96626.78
2019-04-11T17:59:07.852Z,96631.42
2019-04-11T18:01:37.815Z,96632.55
2019-04-11T18:04:01.879Z,96654.02
2019-04-11T18:06:28.575Z,96637.90
2019-04-11T18:08:54.691Z,96656.17
2019-04-11T18:11:20.636Z,96651.50
2019-04-11T18:13:46.464Z,96653.90
2019-04-11T18:16:12.551Z,96652.28
2019-04-11T18:18:41.121Z,96659.03
2019-04-11T18:21:07.926Z,96671.50
2019-04-11T18:23:37.186Z,96662.02
2019-04-11T18:26:03.923Z,96668.48
2019-04-11T18:28:30.042Z,96669.53
2019-04-11T18:30:55.874Z,96673.16
2019-04-11T18:33:24.793Z,96670.97
2019-04-11T18:35:50.954Z,96675.69
2019-04-11T18:38:19.538Z,96685.44
2019-04-11T18:40:45.625Z,96699.09
2019-04-11T18:43:16.275Z,96692.94
2019-04-11T18:45:42.800Z,96693.98
2019-04-11T18:48:08.627Z,96692.02
2019-04-11T18:50:34.799Z,96699.55
2019-04-11T18:53:00.635Z,96703.42
2019-04-11T18:55:26.952Z,96702.72
2019-04-11T18:57:52.757Z,96709.47
2019-04-11T19:00:23.160Z,96706.62
2019-04-11T19:02:49.222Z,96726.05
2019-04-11T19:05:15.529Z,96709.70
2019-04-11T19:07:43.083Z,96714.31
2019-04-11T19:10:14.956Z,96716.77
2019-04-11T19:12:40.678Z,96735.78
2019-04-11T19:15:06.898Z,96717.19
2019-04-11T19:17:32.796Z,96720.60
2019-04-11T19:20:03.001Z,96721.20
2019-04-11T19:22:37.587Z,96739.71
2019-04-11T19:24:56.537Z,96723.45
2019-04-11T19:27:22.389Z,96726.98
2019-04-11T19:29:48.569Z,96725.02
2019-04-11T19:32:14.384Z,96723.97
2019-04-11T19:34:40.229Z,96675.95
2019-04-11T19:37:06.012Z,96731.21
2019-04-11T19:39:31.815Z,96732.47
2019-04-11T19:41:59.913Z,96721.62
2019-04-11T19:44:25.758Z,96733.43
2019-04-11T19:46:51.831Z,96720.97
2019-04-11T19:49:17.866Z,96726.73
2019-04-11T19:51:43.682Z,96723.03
2019-04-11T19:54:14.532Z,96718.02
2019-04-11T19:56:45.933Z,96718.02
2019-04-11T19:59:11.739Z,96722.60
2019-04-11T20:01:37.839Z,96729.75
2019-04-11T20:04:03.686Z,96718.83
2019-04-11T20:06:29.475Z,96719.52
2019-04-11T20:08:58.308Z,96726.59
2019-04-11T20:11:24.111Z,96733.30
2019-04-11T20:13:51.201Z,96719.56
2019-04-11T20:16:17.088Z,96717.75
2019-04-11T20:18:51.392Z,96718.94
2019-04-11T20:21:16.219Z,96712.08
2019-04-11T20:23:42.476Z,96715.19
2019-04-11T20:26:08.306Z,96718.19
2019-04-11T20:28:37.215Z,96719.92
2019-04-11T20:31:03.031Z,96721.02
2019-04-11T20:33:33.836Z,96718.34
2019-04-11T20:35:58.712Z,96723.06
2019-04-11T20:38:24.557Z,96736.99
2019-04-11T20:40:52.631Z,96720.84
2019-04-11T20:43:18.584Z,96721.44
2019-04-11T20:45:45.011Z,96719.91
2019-04-11T20:48:11.111Z,96723.20
2019-04-11T20:50:36.920Z,96729.05
2019-04-11T20:53:12.675Z,96726.09
2019-04-11T20:55:31.314Z,96732.89
2019-04-11T20:57:57.269Z,96725.27
2019-04-11T21:00:27.825Z,96726.09
2019-04-11T21:02:58.126Z,96724.55
2019-04-11T21:05:21.907Z,96714.71
2019-04-11T21:07:48.061Z,96715.25
2019-04-11T21:10:16.957Z,96718.38
2019-04-11T21:12:43.185Z,96734.83
2019-04-11T21:15:09.501Z,96713.68
2019-04-11T21:17:35.409Z,96716.42
2019-04-11T21:20:01.836Z,96719.45
2019-04-11T21:22:27.644Z,96718.28
2019-04-11T21:24:53.459Z,96724.75
2019-04-11T21:27:28.532Z,96724.94
2019-04-11T21:29:54.122Z,96736.30
2019-04-11T21:32:19.942Z,96710.86
2019-04-11T21:34:46.074Z,96721.48
2019-04-11T21:37:11.870Z,96725.89
2019-04-11T21:39:37.686Z,96726.34
2019-04-11T21:42:06.731Z,96719.70
2019-04-11T21:44:36.006Z,96739.05
2019-04-11T21:47:01.429Z,96731.99
2019-04-11T21:49:27.510Z,96729.72
2019-04-11T21:51:53.613Z,96739.30
2019-04-11T21:54:22.436Z,96736.33
2019-04-11T21:56:49.593Z,96748.23
2019-04-11T21:59:20.051Z,96740.53
2019-04-11T22:01:43.948Z,96736.30
2019-04-11T22:04:10.362Z,96742.03
2019-04-11T22:06:36.163Z,96740.57
2019-04-11T22:09:04.814Z,96751.44
2019-04-11T22:11:30.134Z,96743.62
2019-04-11T22:13:58.888Z,96749.76
2019-04-11T22:16:24.654Z,96761.87
2019-04-11T22:18:53.519Z,96739.80
2019-04-11T22:21:19.618Z,96762.22
2019-04-11T22:23:49.254Z,96749.70
2019-04-11T22:26:15.134Z,96749.10
2019-04-11T22:28:40.976Z,96749.69
2019-04-11T22:31:06.772Z,96748.92
2019-04-11T22:33:40.529Z,96750.08
2019-04-11T22:36:06.621Z,96752.86
2019-04-11T22:38:32.440Z,96754.98
2019-04-11T22:41:01.549Z,96756.79
2019-04-11T22:43:25.975Z,96753.11
2019-04-11T22:45:51.853Z,96753.30
2019-04-11T22:48:17.643Z,96754.59
2019-04-11T22:50:43.474Z,96751.54
2019-04-11T22:53:12.815Z,96751.28
2019-04-11T22:55:38.950Z,96753.56
2019-04-11T22:58:04.703Z,96762.94
2019-04-11T23:00:33.554Z,96755.23
2019-04-11T23:03:16.886Z,96773.41
2019-04-11T23:05:41.243Z,96761.69
2019-04-11T23:08:07.080Z,96760.98
2019-04-11T23:10:33.223Z,96761.11
2019-04-11T23:12:59.006Z,96760.50
2019-04-11T23:15:24.826Z,96771.88
2019-04-11T23:17:50.922Z,96761.22
2019-04-11T23:20:16.709Z,96761.22
2019-04-11T23:22:43.478Z,96767.63
2019-04-11T23:25:09.540Z,96770.30
2019-04-11T23:27:35.630Z,96766.63
2019-04-11T23:30:01.853Z,96774.06
2019-04-11T23:32:27.958Z,96775.48
2019-04-11T23:34:53.803Z,96766.17
2019-04-11T23:37:21.114Z,96771.33
2019-04-11T23:39:47.595Z,96767.48
2019-04-11T23:42:13.398Z,96771.70
2019-04-11T23:44:39.350Z,96767.83
2019-04-11T23:47:05.174Z,96775.56
2019-04-11T23:49:31.315Z,96773.21
2019-04-11T23:51:57.375Z,96771.05
2019-04-11T23:54:23.470Z,96767.59
2019-04-11T23:56:49.288Z,96773.19
2019-04-11T23:59:17.889Z,96773.59
